createdAt,value
2023-03-21T00:01:51.709Z,14.87
2023-03-21T00:04:20.072Z,14.92
2023-03-21T00:06:49.455Z,14.86
2023-03-21T00:09:20.887Z,14.89
2023-03-21T00:11:49.525Z,14.93
2023-03-21T00:14:18.928Z,14.84
2023-03-21T00:16:50.635Z,14.84
2023-03-21T00:19:20.853Z,14.99
2023-03-21T00:22:08.751Z,15.03
2023-03-21T00:24:37.883Z,15.03
2023-03-21T00:29:56.512Z,14.87
2023-03-21T00:32:25.885Z,14.92
2023-03-21T00:35:11.943Z,15.01
2023-03-21T00:37:44.190Z,15.06
2023-03-21T00:40:25.319Z,15.10
2023-03-21T00:42:54.751Z,15.13
2023-03-21T00:45:22.996Z,15.19
2023-03-21T00:47:51.288Z,15.20
2023-03-21T00:50:20.132Z,15.14
2023-03-21T00:52:50.534Z,15.13
2023-03-21T00:55:21.164Z,15.08
2023-03-21T00:57:56.201Z,15.13
2023-03-21T01:00:29.534Z,15.16
2023-03-21T01:03:04.379Z,15.13
2023-03-21T01:05:58.358Z,15.13
2023-03-21T01:08:33.201Z,15.12
2023-03-21T01:11:13.508Z,15.11
2023-03-21T01:13:52.820Z,15.12
2023-03-21T01:16:25.416Z,15.11
2023-03-21T01:18:54.177Z,15.09
2023-03-21T01:21:22.281Z,15.11
2023-03-21T01:23:51.666Z,15.12
2023-03-21T01:26:19.930Z,15.12
2023-03-21T01:28:48.129Z,15.12
2023-03-21T01:31:17.976Z,15.11
2023-03-21T01:33:46.683Z,15.12
2023-03-21T01:36:21.828Z,15.00
2023-03-21T01:38:53.249Z,14.99
2023-03-21T01:41:36.767Z,15.00
2023-03-21T01:44:19.524Z,14.99
2023-03-21T01:47:03.558Z,14.98
2023-03-21T01:49:41.738Z,14.98
2023-03-21T01:52:21.106Z,14.93
2023-03-21T01:54:58.360Z,14.90
2023-03-21T01:57:40.383Z,14.88
2023-03-21T02:00:13.580Z,14.85
2023-03-21T02:02:52.587Z,14.83
2023-03-21T02:05:28.816Z,14.83
2023-03-21T02:07:57.031Z,14.84
2023-03-21T02:10:28.180Z,14.84
2023-03-21T02:13:08.096Z,14.83
2023-03-21T02:15:39.035Z,14.82
2023-03-21T02:18:15.435Z,14.81
2023-03-21T02:21:05.623Z,14.80
2023-03-21T02:24:03.181Z,14.78
2023-03-21T02:27:05.044Z,14.77
2023-03-21T02:30:02.426Z,14.80
2023-03-21T02:32:42.017Z,14.81
2023-03-21T02:35:29.579Z,14.80
2023-03-21T02:38:02.584Z,14.81
2023-03-21T02:40:36.118Z,14.79
2023-03-21T02:43:22.163Z,14.81
2023-03-21T02:45:55.030Z,14.81
2023-03-21T02:48:35.268Z,14.81
2023-03-21T02:51:10.461Z,14.79
2023-03-21T02:53:43.555Z,14.78
2023-03-21T02:56:12.037Z,14.80
2023-03-21T02:58:42.681Z,14.80
2023-03-21T03:01:11.567Z,14.77
2023-03-21T03:03:40.002Z,14.75
2023-03-21T03:06:17.094Z,14.72
2023-03-21T03:09:03.243Z,14.72
2023-03-21T03:11:35.740Z,14.74
2023-03-21T03:14:49.924Z,14.74
2023-03-21T03:17:24.594Z,14.78
2023-03-21T03:20:16.629Z,14.73
2023-03-21T03:22:55.905Z,14.71
2023-03-21T03:25:42.217Z,14.64
2023-03-21T03:28:14.937Z,14.64
2023-03-21T03:30:54.257Z,14.65
2023-03-21T03:33:30.939Z,14.63
2023-03-21T03:36:06.444Z,14.66
2023-03-21T03:38:37.948Z,14.66
2023-03-21T03:41:11.759Z,14.65
2023-03-21T03:43:48.560Z,14.64
2023-03-21T03:46:21.098Z,14.62
2023-03-21T03:48:52.310Z,14.61
2023-03-21T03:51:25.486Z,14.65
2023-03-21T03:53:58.276Z,14.66
2023-03-21T03:56:29.717Z,14.66
2023-03-21T03:58:58.678Z,14.68
2023-03-21T04:01:27.846Z,14.68
2023-03-21T04:04:10.586Z,14.71
2023-03-21T04:06:41.461Z,14.64
2023-03-21T04:09:20.686Z,14.55
2023-03-21T04:11:51.502Z,14.53
2023-03-21T04:14:19.780Z,14.57
2023-03-21T04:16:47.797Z,14.54
2023-03-21T04:19:16.616Z,14.56
2023-03-21T04:21:44.828Z,14.59
2023-03-21T04:24:13.934Z,14.65
2023-03-21T04:26:43.077Z,14.66
2023-03-21T04:29:14.524Z,14.66
2023-03-21T04:31:43.716Z,14.59
2023-03-21T04:34:14.402Z,14.52
2023-03-21T04:36:45.751Z,14.57
2023-03-21T04:39:14.442Z,14.60
2023-03-21T04:41:43.647Z,14.63
2023-03-21T04:44:13.579Z,14.66
2023-03-21T04:46:43.609Z,14.64
2023-03-21T04:49:11.838Z,14.66
2023-03-21T04:51:40.482Z,14.68
2023-03-21T04:54:12.292Z,14.66
2023-03-21T04:56:41.075Z,14.63
2023-03-21T04:59:13.034Z,14.65
2023-03-21T05:01:43.735Z,14.68
2023-03-21T05:04:15.755Z,14.73
2023-03-21T05:06:44.891Z,14.74
2023-03-21T05:09:14.565Z,14.72
2023-03-21T05:11:43.175Z,14.63
2023-03-21T05:14:14.819Z,14.59
2023-03-21T05:16:48.515Z,14.63
2023-03-21T05:19:18.594Z,14.62
2023-03-21T05:21:47.496Z,14.61
2023-03-21T05:24:19.356Z,14.59
2023-03-21T05:26:52.260Z,14.58
2023-03-21T05:29:21.722Z,14.60
2023-03-21T05:31:51.620Z,14.61
2023-03-21T05:34:21.689Z,14.59
2023-03-21T05:36:49.906Z,14.61
2023-03-21T05:39:18.363Z,14.60
2023-03-21T05:41:46.484Z,14.67
2023-03-21T05:44:15.545Z,14.69
2023-03-21T05:46:44.072Z,14.73
2023-03-21T05:49:12.919Z,14.75
2023-03-21T05:51:44.968Z,14.76
2023-03-21T05:54:16.651Z,14.77
2023-03-21T05:56:45.307Z,14.80
2023-03-21T05:59:13.823Z,14.84
2023-03-21T06:01:42.133Z,14.88
2023-03-21T06:04:11.677Z,14.92
2023-03-21T06:06:41.871Z,14.98
2023-03-21T06:09:11.340Z,14.99
2023-03-21T06:11:47.499Z,15.01
2023-03-21T06:14:16.850Z,15.03
2023-03-21T06:16:45.591Z,15.05
2023-03-21T06:19:14.285Z,15.07
2023-03-21T06:21:43.577Z,15.12
2023-03-21T06:24:14.506Z,15.09
2023-03-21T06:26:43.430Z,15.08
2023-03-21T06:29:11.803Z,15.12
2023-03-21T06:31:42.860Z,15.19
2023-03-21T06:34:11.692Z,15.18
2023-03-21T06:36:39.964Z,15.26
2023-03-21T06:39:08.776Z,15.27
2023-03-21T06:41:39.907Z,15.30
2023-03-21T06:44:08.705Z,15.40
2023-03-21T06:46:37.343Z,15.44
2023-03-21T06:49:05.597Z,15.51
2023-03-21T06:51:34.089Z,15.56
2023-03-21T06:54:02.703Z,15.59
2023-03-21T06:56:30.769Z,15.58
2023-03-21T06:59:00.586Z,15.66
2023-03-21T07:01:30.604Z,15.68
2023-03-21T07:03:59.914Z,15.70
2023-03-21T07:06:28.732Z,15.72
2023-03-21T07:08:57.322Z,15.75
2023-03-21T07:11:26.220Z,15.76
2023-03-21T07:13:54.498Z,15.87
2023-03-21T07:16:26.181Z,15.88
2023-03-21T07:18:54.569Z,15.95
2023-03-21T07:21:22.657Z,16.02
2023-03-21T07:23:51.244Z,16.07
2023-03-21T07:26:19.641Z,16.12
2023-03-21T07:28:47.626Z,16.20
2023-03-21T07:31:17.740Z,16.21
2023-03-21T07:33:47.276Z,16.21
2023-03-21T07:36:16.916Z,16.30
2023-03-21T07:38:47.008Z,16.39
2023-03-21T07:43:44.750Z,16.66
2023-03-21T07:46:13.001Z,16.76
2023-03-21T07:48:41.006Z,16.86
2023-03-21T07:51:10.410Z,17.00
2023-03-21T07:53:39.246Z,17.14
2023-03-21T07:56:07.596Z,17.35
2023-03-21T07:58:35.706Z,17.49
2023-03-21T08:01:03.876Z,17.43
2023-03-21T08:03:33.402Z,17.42
2023-03-21T08:06:01.990Z,17.56
2023-03-21T08:08:31.701Z,17.70
2023-03-21T08:11:00.104Z,17.86
2023-03-21T08:13:28.141Z,18.04
2023-03-21T08:15:56.143Z,18.05
2023-03-21T08:18:24.331Z,18.08
2023-03-21T08:20:54.014Z,18.18
2023-03-21T08:23:22.466Z,18.29
2023-03-21T08:25:54.634Z,18.14
2023-03-21T08:28:24.275Z,17.91
2023-03-21T08:30:52.558Z,18.17
2023-03-21T08:33:21.464Z,18.29
2023-03-21T08:35:49.504Z,18.35
2023-03-21T08:38:17.930Z,18.55
2023-03-21T08:40:45.831Z,18.53
2023-03-21T08:43:15.314Z,18.69
2023-03-21T08:45:43.615Z,18.57
2023-03-21T08:48:11.602Z,18.63
2023-03-21T08:50:40.197Z,18.63
2023-03-21T08:53:08.775Z,18.58
2023-03-21T08:55:37.060Z,18.56
2023-03-21T08:58:05.104Z,18.65
2023-03-21T09:00:34.683Z,18.90
2023-03-21T09:03:04.983Z,19.00
2023-03-21T09:05:33.742Z,19.16
2023-03-21T09:08:03.346Z,19.18
2023-03-21T09:10:31.582Z,19.33
2023-03-21T09:12:59.905Z,19.48
2023-03-21T09:15:28.967Z,19.53
2023-03-21T09:18:13.203Z,19.46
2023-03-21T09:20:43.065Z,19.58
2023-03-21T09:23:12.143Z,19.65
2023-03-21T09:25:40.797Z,19.67
2023-03-21T09:28:09.781Z,19.65
2023-03-21T09:30:38.216Z,19.68
2023-03-21T09:33:09.777Z,19.89
2023-03-21T09:35:39.096Z,19.95
2023-03-21T09:38:07.390Z,20.12
2023-03-21T09:40:50.163Z,20.25
2023-03-21T09:43:33.101Z,20.37
2023-03-21T09:46:07.234Z,20.41
2023-03-21T09:48:54.329Z,20.35
2023-03-21T09:51:27.204Z,20.52
2023-03-21T09:53:58.562Z,20.51
2023-03-21T09:56:26.993Z,20.52
2023-03-21T09:58:59.369Z,20.66
2023-03-21T10:01:29.883Z,20.69
2023-03-21T10:04:03.385Z,20.81
2023-03-21T10:06:33.638Z,21.00
2023-03-21T10:09:06.585Z,21.21
2023-03-21T10:11:43.321Z,21.29
2023-03-21T10:14:19.567Z,21.30
2023-03-21T10:16:50.455Z,21.32
2023-03-21T10:19:21.578Z,21.31
2023-03-21T10:22:00.627Z,21.36
2023-03-21T10:24:32.611Z,21.46
2023-03-21T10:27:02.444Z,22.00
2023-03-21T10:29:37.035Z,22.35
2023-03-21T10:32:05.355Z,22.56
2023-03-21T10:34:39.371Z,22.67
2023-03-21T10:37:08.045Z,22.70
2023-03-21T10:39:39.422Z,22.84
2023-03-21T10:42:08.408Z,22.87
2023-03-21T10:44:37.345Z,23.01
2023-03-21T10:47:07.634Z,23.13
2023-03-21T10:50:05.121Z,23.09
2023-03-21T10:52:29.800Z,23.01
2023-03-21T10:55:09.865Z,23.22
2023-03-21T10:57:38.782Z,23.15
2023-03-21T11:00:20.787Z,22.97
2023-03-21T11:02:51.208Z,23.20
2023-03-21T11:05:25.473Z,23.03
2023-03-21T11:08:00.078Z,23.07
2023-03-21T11:10:31.164Z,23.17
2023-03-21T11:13:04.645Z,23.31
2023-03-21T11:15:34.773Z,22.99
2023-03-21T11:18:15.533Z,23.10
2023-03-21T11:20:50.312Z,23.34
2023-03-21T11:23:20.804Z,23.28
2023-03-21T11:25:51.302Z,23.43
2023-03-21T11:28:24.292Z,23.36
2023-03-21T11:30:54.780Z,23.59
2023-03-21T11:33:28.199Z,23.64
2023-03-21T11:36:02.822Z,23.60
2023-03-21T11:38:37.694Z,23.57
2023-03-21T11:41:07.294Z,23.57
2023-03-21T11:43:37.541Z,23.28
2023-03-21T11:46:09.812Z,23.43
2023-03-21T11:48:42.252Z,23.15
2023-03-21T11:51:22.148Z,23.11
2023-03-21T11:53:57.189Z,23.14
2023-03-21T11:56:28.957Z,22.96
2023-03-21T11:59:08.710Z,23.09
2023-03-21T12:01:46.528Z,22.99
2023-03-21T12:04:22.422Z,22.90
2023-03-21T12:07:01.509Z,23.28
2023-03-21T12:09:42.086Z,23.42
2023-03-21T12:12:38.275Z,23.50
2023-03-21T12:15:16.035Z,23.66
2023-03-21T12:17:56.117Z,23.92
2023-03-21T12:20:38.709Z,24.14
2023-03-21T12:23:42.238Z,23.54
2023-03-21T12:26:21.062Z,23.70
2023-03-21T12:29:05.251Z,23.76
2023-03-21T12:31:43.793Z,24.06
2023-03-21T12:34:26.011Z,24.28
2023-03-21T12:37:09.087Z,24.31
2023-03-21T12:39:40.809Z,24.14
2023-03-21T12:42:36.020Z,24.08
2023-03-21T12:45:15.385Z,24.21
2023-03-21T12:47:49.742Z,24.11
2023-03-21T12:50:24.205Z,24.11
2023-03-21T12:52:57.190Z,24.14
2023-03-21T12:55:29.260Z,24.22
2023-03-21T12:58:04.926Z,24.16
2023-03-21T13:00:39.305Z,23.96
2023-03-21T13:03:14.910Z,23.86
2023-03-21T13:05:47.615Z,24.01
2023-03-21T13:08:22.161Z,23.88
2023-03-21T13:10:51.542Z,23.73
2023-03-21T13:13:27.229Z,23.71
2023-03-21T13:16:03.828Z,23.74
2023-03-21T13:18:40.775Z,23.45
2023-03-21T13:21:16.625Z,23.63
2023-03-21T13:24:00.461Z,23.46
2023-03-21T13:26:39.540Z,23.69
2023-03-21T13:29:16.069Z,23.67
2023-03-21T13:31:52.537Z,23.69
2023-03-21T13:34:23.408Z,23.75
2023-03-21T13:36:53.483Z,24.05
2023-03-21T13:39:27.366Z,23.92
2023-03-21T13:41:56.756Z,24.19
2023-03-21T13:44:33.115Z,24.12
2023-03-21T13:47:03.542Z,24.35
2023-03-21T13:49:35.441Z,24.40
2023-03-21T13:52:22.334Z,24.87
2023-03-21T13:54:53.831Z,24.77
2023-03-21T13:57:38.348Z,24.70
2023-03-21T14:00:20.873Z,24.25
2023-03-21T14:02:58.335Z,24.44
2023-03-21T14:05:28.677Z,24.37
2023-03-21T14:08:12.564Z,24.51
2023-03-21T14:10:45.779Z,24.59
2023-03-21T14:13:20.085Z,23.95
2023-03-21T14:15:55.993Z,24.11
2023-03-21T14:18:47.836Z,24.14
2023-03-21T14:21:23.717Z,24.21
2023-03-21T14:24:00.873Z,24.26
2023-03-21T14:26:31.515Z,24.31
2023-03-21T14:29:05.217Z,24.35
2023-03-21T14:31:33.989Z,24.27
2023-03-21T14:34:03.426Z,24.39
2023-03-21T14:36:35.235Z,24.61
2023-03-21T14:39:07.382Z,24.69
2023-03-21T14:41:45.487Z,24.74
2023-03-21T14:44:22.385Z,24.09
2023-03-21T14:46:50.495Z,24.51
2023-03-21T14:49:23.356Z,24.37
2023-03-21T14:51:52.969Z,24.17
2023-03-21T14:54:21.525Z,24.05
2023-03-21T14:56:52.595Z,23.92
2023-03-21T14:59:26.723Z,23.89
2023-03-21T15:01:55.594Z,23.93
2023-03-21T15:04:23.703Z,23.77
2023-03-21T15:06:54.089Z,23.74
2023-03-21T15:09:27.098Z,23.77
2023-03-21T15:11:56.450Z,23.74
2023-03-21T15:14:30.164Z,23.79
2023-03-21T15:16:59.963Z,23.68
2023-03-21T15:19:32.455Z,23.54
2023-03-21T15:22:07.244Z,23.60
2023-03-21T15:24:39.536Z,23.58
2023-03-21T15:27:09.356Z,23.52
2023-03-21T15:29:39.603Z,23.48
2023-03-21T15:32:23.876Z,23.53
2023-03-21T15:34:56.626Z,23.44
2023-03-21T15:37:37.117Z,23.30
2023-03-21T15:40:19.407Z,23.10
2023-03-21T15:42:52.621Z,23.20
2023-03-21T15:45:25.698Z,23.20
2023-03-21T15:47:59.890Z,23.17
2023-03-21T15:50:38.606Z,23.13
2023-03-21T15:53:13.184Z,23.03
2023-03-21T15:55:48.144Z,23.03
2023-03-21T15:58:19.186Z,22.89
2023-03-21T16:00:55.444Z,22.91
2023-03-21T16:03:27.252Z,22.65
2023-03-21T16:06:19.247Z,22.66
2023-03-21T16:08:50.134Z,22.69
2023-03-21T16:11:28.372Z,22.66
2023-03-21T16:13:57.824Z,22.63
2023-03-21T16:16:30.367Z,22.59
2023-03-21T16:19:00.876Z,22.53
2023-03-21T16:21:31.810Z,22.48
2023-03-21T16:24:00.778Z,22.42
2023-03-21T16:26:31.679Z,22.37
2023-03-21T16:29:01.469Z,22.32
2023-03-21T16:31:33.275Z,22.23
2023-03-21T16:34:04.004Z,22.20
2023-03-21T16:36:36.575Z,22.14
2023-03-21T16:39:16.848Z,22.06
2023-03-21T16:41:47.784Z,21.99
2023-03-21T16:44:19.286Z,21.90
2023-03-21T16:46:52.858Z,21.83
2023-03-21T16:49:24.878Z,21.62
2023-03-21T16:52:05.367Z,21.54
2023-03-21T16:54:39.227Z,21.49
2023-03-21T16:57:09.825Z,21.41
2023-03-21T16:59:48.733Z,21.07
2023-03-21T17:02:24.766Z,21.03
2023-03-21T17:04:56.745Z,21.03
2023-03-21T17:07:29.926Z,20.86
2023-03-21T17:10:03.810Z,20.64
2023-03-21T17:12:32.756Z,20.54
2023-03-21T17:15:02.832Z,20.46
2023-03-21T17:17:34.373Z,20.29
2023-03-21T17:20:17.938Z,20.24
2023-03-21T17:22:46.906Z,19.78
2023-03-21T17:25:21.925Z,19.81
2023-03-21T17:27:53.093Z,19.76
2023-03-21T17:30:24.974Z,19.60
2023-03-21T17:32:55.812Z,19.41
2023-03-21T17:35:25.160Z,19.22
2023-03-21T17:37:54.144Z,19.37
2023-03-21T17:40:27.183Z,19.30
2023-03-21T17:42:57.005Z,18.97
2023-03-21T17:48:58.153Z,18.90
2023-03-21T17:51:34.631Z,18.64
2023-03-21T17:54:06.066Z,18.73
2023-03-21T18:00:46.484Z,18.69
2023-03-21T18:03:16.309Z,18.78
2023-03-21T18:05:49.961Z,18.85
2023-03-21T18:08:31.919Z,18.86
2023-03-21T18:11:00.479Z,18.92
2023-03-21T18:13:41.924Z,18.83
2023-03-21T18:17:10.514Z,18.78
2023-03-21T18:19:40.822Z,18.77
2023-03-21T18:22:09.087Z,18.74
2023-03-21T18:24:38.416Z,18.70
2023-03-21T18:27:07.264Z,18.73
2023-03-21T18:32:27.566Z,18.61
2023-03-21T18:34:56.843Z,18.38
2023-03-21T18:37:25.479Z,18.46
2023-03-21T18:40:07.803Z,18.40
2023-03-21T18:42:37.019Z,18.16
2023-03-21T18:45:07.696Z,18.28
2023-03-21T18:47:40.902Z,18.24
2023-03-21T18:50:14.990Z,18.05
2023-03-21T18:52:46.521Z,18.08
2023-03-21T18:55:30.740Z,18.06
2023-03-21T18:58:09.083Z,17.77
2023-03-21T19:00:41.061Z,17.76
2023-03-21T19:03:21.601Z,17.68
2023-03-21T19:06:07.087Z,17.57
2023-03-21T19:08:59.388Z,17.39
2023-03-21T19:11:32.070Z,17.46
2023-03-21T19:14:00.240Z,17.59
2023-03-21T19:16:32.660Z,17.53
2023-03-21T19:19:08.909Z,17.46
2023-03-21T19:21:37.945Z,17.53
2023-03-21T19:24:26.890Z,17.45
2023-03-21T19:27:20.182Z,17.52
2023-03-21T19:30:06.578Z,17.49
2023-03-21T19:32:40.711Z,17.55
2023-03-21T19:35:10.723Z,17.48
2023-03-21T19:37:38.954Z,17.34
2023-03-21T19:40:10.190Z,17.35
2023-03-21T19:42:42.491Z,17.27
2023-03-21T19:45:15.165Z,17.39
2023-03-21T19:47:50.851Z,17.36
2023-03-21T19:53:14.708Z,17.39
2023-03-21T19:56:20.743Z,17.36
2023-03-21T19:59:12.458Z,17.32
2023-03-21T20:02:25.028Z,17.37
2023-03-21T20:05:14.528Z,17.35
2023-03-21T20:08:09.567Z,17.33
2023-03-21T20:10:50.315Z,17.34
2023-03-21T20:13:18.827Z,17.33
2023-03-21T20:15:55.396Z,17.33
2023-03-21T20:18:38.263Z,17.35
2023-03-21T20:21:16.973Z,17.33
2023-03-21T20:24:05.188Z,17.27
2023-03-21T20:26:34.226Z,17.09
2023-03-21T20:37:17.500Z,17.11
2023-03-21T20:39:50.168Z,16.89
2023-03-21T20:45:47.637Z,17.08
2023-03-21T20:48:37.538Z,17.09
2023-03-21T20:54:34.892Z,17.09
2023-03-21T20:57:04.738Z,17.10
2023-03-21T20:59:33.603Z,17.12
2023-03-21T21:02:01.873Z,17.14
2023-03-21T21:04:52.816Z,17.11
2023-03-21T21:07:31.047Z,17.05
2023-03-21T21:14:39.532Z,17.10
2023-03-21T21:17:24.544Z,17.00
2023-03-21T21:19:56.477Z,17.02
2023-03-21T21:22:24.940Z,17.01
2023-03-21T21:25:03.888Z,17.02
2023-03-21T21:27:32.370Z,17.02
2023-03-21T21:30:18.776Z,17.01
2023-03-21T21:32:47.307Z,17.04
2023-03-21T21:35:48.632Z,17.03
2023-03-21T21:38:22.121Z,17.02
2023-03-21T21:40:52.159Z,16.95
2023-03-21T21:43:21.252Z,16.90
2023-03-21T21:49:14.134Z,16.88
2023-03-21T21:51:42.586Z,16.91
2023-03-21T21:54:18.064Z,16.87
2023-03-21T22:07:54.839Z,16.84
2023-03-21T22:10:25.446Z,16.78
2023-03-21T22:12:53.501Z,16.80
2023-03-21T22:15:23.841Z,16.83
2023-03-21T22:17:52.801Z,16.81
2023-03-21T22:20:22.377Z,16.82
2023-03-21T22:22:52.199Z,16.80
2023-03-21T22:25:20.567Z,16.79
2023-03-21T22:27:48.567Z,16.77
2023-03-21T22:30:18.648Z,16.75
2023-03-21T22:33:02.597Z,16.76
2023-03-21T22:35:34.553Z,16.81
2023-03-21T22:38:04.283Z,16.79
2023-03-21T22:40:32.467Z,16.77
2023-03-21T22:43:00.709Z,16.80
2023-03-21T22:45:29.222Z,16.80
2023-03-21T22:47:59.846Z,16.84
2023-03-21T22:50:29.064Z,16.86
2023-03-21T22:52:57.140Z,16.87
2023-03-21T22:55:26.527Z,16.86
2023-03-21T22:57:54.945Z,16.72
2023-03-21T23:00:22.964Z,16.78
2023-03-21T23:02:51.049Z,16.73
2023-03-21T23:05:19.659Z,16.75
2023-03-21T23:07:47.717Z,16.73
2023-03-21T23:10:16.105Z,16.67
2023-03-21T23:12:46.147Z,16.67
2023-03-21T23:15:14.307Z,16.66
2023-03-21T23:17:44.230Z,16.56
2023-03-21T23:20:12.937Z,16.49
2023-03-21T23:22:41.545Z,16.50
2023-03-21T23:25:09.913Z,16.44
2023-03-21T23:27:38.436Z,16.41
2023-03-21T23:30:09.298Z,16.37
2023-03-21T23:32:38.212Z,16.36
2023-03-21T23:35:07.437Z,16.29
2023-03-21T23:37:36.112Z,16.19
2023-03-21T23:40:07.300Z,16.21
2023-03-21T23:42:36.206Z,16.17
2023-03-21T23:45:05.175Z,16.14
2023-03-21T23:47:34.567Z,16.11
2023-03-21T23:50:06.878Z,16.07
2023-03-21T23:52:35.549Z,16.05
2023-03-21T23:55:03.754Z,16.02
2023-03-21T23:57:31.906Z,15.97
